Time;durP1;ratioP1;P1;durP2;ratioP2;P2;SDS_P1;SDS_P2;PMS_P1;PMS_P2;Temp;Humidity;BMP_temperature;BMP_pressure;BME280_temperature;BME280_humidity;BME280_pressure;Samples;Min_cycle;Max_cycle;Signal;HPM_P1;HPM_P2
2023/08/05 00:02:25;;;;;;;6.82;3.65;;;15.70;99.90;;;;;;4986217;28;20569;-44
2023/08/05 00:04:50;;;;;;;12.25;4.22;;;15.70;99.90;;;;;;4985286;28;20038;-44
2023/08/05 00:07:16;;;;;;;8.30;3.42;;;15.70;99.90;;;;;;4978647;28;20030;-44
2023/08/05 00:09:42;;;;;;;7.40;3.30;;;15.70;99.90;;;;;;4974808;28;20101;-44
2023/08/05 00:12:08;;;;;;;8.45;4.25;;;15.70;99.90;;;;;;4966756;28;20093;-45
2023/08/05 00:14:34;;;;;;;7.50;3.60;;;15.70;99.90;;;;;;4966313;28;20577;-44
2023/08/05 00:17:00;;;;;;;7.88;3.83;;;15.70;99.90;;;;;;4966594;28;20441;-44
2023/08/05 00:19:25;;;;;;;7.05;3.63;;;15.60;99.90;;;;;;4966567;28;20058;-44
2023/08/05 00:21:51;;;;;;;8.32;4.10;;;15.60;99.90;;;;;;4965937;28;20454;-45
2023/08/05 00:24:17;;;;;;;6.55;3.30;;;15.60;99.90;;;;;;4966285;28;20061;-44
2023/08/05 00:26:42;;;;;;;8.07;3.63;;;15.60;99.90;;;;;;4966714;28;20556;-44
2023/08/05 00:29:09;;;;;;;6.63;3.40;;;15.60;99.90;;;;;;4966442;28;20445;-44
2023/08/05 00:31:35;;;;;;;8.57;3.35;;;15.60;99.90;;;;;;4965692;28;20070;-44
2023/08/05 00:34:00;;;;;;;8.68;3.55;;;15.60;99.90;;;;;;4966473;28;20042;-44
2023/08/05 00:36:26;;;;;;;11.38;3.97;;;15.60;99.90;;;;;;4964944;28;20486;-44
2023/08/05 00:38:51;;;;;;;8.73;4.68;;;15.60;99.90;;;;;;4964959;28;20072;-44
2023/08/05 00:41:17;;;;;;;8.68;4.28;;;15.50;99.90;;;;;;4965895;28;20039;-45
2023/08/05 00:43:43;;;;;;;6.32;3.92;;;15.50;99.90;;;;;;4966376;28;20039;-44
2023/08/05 00:46:10;;;;;;;8.68;4.40;;;15.50;99.90;;;;;;4965588;28;20046;-44
2023/08/05 00:48:36;;;;;;;8.23;4.15;;;15.40;99.90;;;;;;4965909;28;20086;-44
2023/08/05 00:51:02;;;;;;;8.25;4.22;;;15.40;99.90;;;;;;4965824;28;20177;-45
2023/08/05 00:53:31;;;;;;;8.68;4.70;;;15.40;99.90;;;;;;4966049;28;20050;-44
2023/08/05 00:55:56;;;;;;;6.85;4.60;;;15.40;99.90;;;;;;4964589;28;20053;-44
2023/08/05 00:58:22;;;;;;;8.18;4.53;;;15.30;99.90;;;;;;4965889;28;20038;-44
2023/08/05 01:00:49;;;;;;;8.23;4.60;;;15.40;99.90;;;;;;4965764;28;20125;-44
2023/08/05 01:03:15;;;;;;;7.10;4.85;;;15.30;99.90;;;;;;5041290;23;20017;-44
2023/08/05 01:05:42;;;;;;;11.98;4.70;;;15.30;99.90;;;;;;4966287;28;20050;-44
2023/08/05 01:08:10;;;;;;;10.98;4.85;;;15.40;99.90;;;;;;4948430;28;20406;-44
2023/08/05 01:10:35;;;;;;;9.57;4.55;;;15.30;99.90;;;;;;4947441;28;20134;-43
2023/08/05 01:13:01;;;;;;;10.88;5.00;;;15.30;99.90;;;;;;4982277;28;20121;-46
2023/08/05 01:15:27;;;;;;;9.68;5.00;;;15.20;99.90;;;;;;4985012;28;20093;-46
2023/08/05 01:17:55;;;;;;;12.80;4.88;;;15.30;99.90;;;;;;4986805;28;20600;-45
2023/08/05 01:20:27;;;;;;;9.70;4.82;;;15.30;99.90;;;;;;4984653;28;20042;-45
2023/08/05 01:22:56;;;;;;;11.18;4.95;;;15.20;99.90;;;;;;4987002;28;20054;-44
2023/08/05 01:25:32;;;;;;;11.52;5.30;;;15.20;99.90;;;;;;4985765;28;20046;-45
2023/08/05 01:28:00;;;;;;;12.50;4.80;;;15.20;99.90;;;;;;4986744;28;20047;-44
2023/08/05 01:30:27;;;;;;;15.38;5.65;;;15.10;99.90;;;;;;4985602;28;20136;-44
2023/08/05 01:32:54;;;;;;;11.90;5.22;;;15.10;99.90;;;;;;4986319;28;20042;-44
2023/08/05 01:35:23;;;;;;;10.45;5.25;;;15.10;99.90;;;;;;4986932;28;20045;-44
2023/08/05 01:37:49;;;;;;;12.18;5.30;;;15.00;99.90;;;;;;4986993;28;20409;-44
2023/08/05 01:40:15;;;;;;;9.15;5.28;;;15.00;99.90;;;;;;4985662;28;20042;-44
2023/08/05 01:42:41;;;;;;;11.48;4.75;;;15.00;99.90;;;;;;4986457;28;20125;-46
2023/08/05 01:45:07;;;;;;;10.63;5.25;;;15.20;99.90;;;;;;4986748;28;20411;-44
2023/08/05 01:47:33;;;;;;;11.82;5.10;;;15.00;99.90;;;;;;4986490;28;20550;-44
2023/08/05 01:49:58;;;;;;;10.43;5.28;;;15.00;99.90;;;;;;4980530;28;20130;-45
2023/08/05 01:52:24;;;;;;;11.80;5.70;;;15.00;99.90;;;;;;4967302;28;20129;-45
2023/08/05 01:54:50;;;;;;;9.98;5.22;;;14.90;99.90;;;;;;4965548;28;20561;-47
2023/08/05 01:57:15;;;;;;;11.52;5.20;;;14.90;99.90;;;;;;4967261;28;20055;-46
2023/08/05 01:59:41;;;;;;;8.32;4.80;;;14.90;99.90;;;;;;4966362;28;20042;-45
2023/08/05 02:02:07;;;;;;;10.98;4.90;;;14.80;99.90;;;;;;4966219;28;20046;-45
2023/08/05 02:04:32;;;;;;;11.85;5.13;;;14.80;99.90;;;;;;4966241;28;20125;-48
2023/08/05 02:06:58;;;;;;;8.65;4.82;;;14.80;99.90;;;;;;4966177;28;20519;-44
2023/08/05 02:09:24;;;;;;;7.05;5.13;;;14.80;99.90;;;;;;4965157;28;20126;-44
2023/08/05 02:11:49;;;;;;;12.15;5.45;;;14.70;99.90;;;;;;4966097;28;20053;-46
2023/08/05 02:14:15;;;;;;;9.95;5.53;;;14.70;99.90;;;;;;4974047;28;20043;-44
2023/08/05 02:16:41;;;;;;;12.07;5.60;;;14.70;99.90;;;;;;4966122;28;20500;-44
2023/08/05 02:19:06;;;;;;;8.70;4.90;;;14.60;99.90;;;;;;4966894;28;20411;-44
2023/08/05 02:21:32;;;;;;;12.07;5.38;;;14.60;99.90;;;;;;4968419;28;20039;-44
2023/08/05 02:23:58;;;;;;;9.25;5.47;;;14.70;99.90;;;;;;4965538;28;20042;-44
2023/08/05 02:26:24;;;;;;;9.32;5.55;;;14.50;99.90;;;;;;4966792;28;20053;-46
2023/08/05 02:28:49;;;;;;;9.00;4.88;;;14.50;99.90;;;;;;4967462;28;20046;-44
2023/08/05 02:31:15;;;;;;;9.48;4.63;;;14.50;99.90;;;;;;4966966;28;20042;-45
2023/08/05 02:33:41;;;;;;;8.40;5.00;;;14.40;99.90;;;;;;4966333;28;20125;-44
2023/08/05 02:36:07;;;;;;;7.60;4.80;;;14.30;99.90;;;;;;4965284;28;20055;-44
2023/08/05 02:38:33;;;;;;;8.27;4.78;;;14.30;99.90;;;;;;4965793;28;20046;-46
2023/08/05 02:40:59;;;;;;;10.00;4.70;;;14.30;99.90;;;;;;4980987;28;20136;-44
2023/08/05 02:43:24;;;;;;;11.90;4.90;;;14.30;99.90;;;;;;4985826;28;20108;-45
2023/08/05 02:45:57;;;;;;;8.57;4.80;;;14.20;99.90;;;;;;4984696;28;20057;-45
2023/08/05 02:48:23;;;;;;;9.85;4.97;;;14.20;99.90;;;;;;4985811;28;20042;-45
2023/08/05 02:50:50;;;;;;;9.45;5.07;;;14.20;99.90;;;;;;4985078;28;20054;-44
2023/08/05 02:53:16;;;;;;;7.40;4.80;;;14.10;99.90;;;;;;4985624;28;20046;-44
2023/08/05 02:55:43;;;;;;;9.68;4.70;;;14.10;99.90;;;;;;4984273;28;20038;-44
2023/08/05 02:58:09;;;;;;;11.52;5.65;;;14.20;99.90;;;;;;4985345;28;20128;-44
2023/08/05 03:00:34;;;;;;;10.88;5.05;;;14.10;99.90;;;;;;4985379;28;20049;-44
2023/08/05 03:03:00;;;;;;;11.85;5.32;;;14.10;99.90;;;;;;4985720;28;20034;-44
2023/08/05 03:05:26;;;;;;;10.43;5.00;;;14.10;99.90;;;;;;4985458;28;20129;-45
2023/08/05 03:07:52;;;;;;;10.80;4.43;;;14.20;99.90;;;;;;4986266;28;20082;-45
2023/08/05 03:10:18;;;;;;;10.40;4.95;;;14.50;99.90;;;;;;4985000;28;20140;-44
2023/08/05 03:12:43;;;;;;;12.10;5.10;;;14.10;99.90;;;;;;4984946;28;20451;-44
2023/08/05 03:15:09;;;;;;;8.52;4.82;;;14.10;99.90;;;;;;4985798;28;20384;-44
2023/08/05 03:17:35;;;;;;;8.68;4.97;;;14.00;99.90;;;;;;4983803;28;20125;-44
2023/08/05 03:20:06;;;;;;;8.98;5.00;;;13.90;99.90;;;;;;4984850;28;20059;-45
2023/08/05 03:22:32;;;;;;;10.00;5.20;;;14.00;99.90;;;;;;4984229;28;20034;-44
2023/08/05 03:24:59;;;;;;;11.80;5.13;;;13.90;99.90;;;;;;4984342;28;20049;-46
2023/08/05 03:27:24;;;;;;;10.10;4.85;;;13.90;99.90;;;;;;4984992;28;20041;-44
2023/08/05 03:29:50;;;;;;;8.85;4.63;;;13.90;99.90;;;;;;4985513;28;20042;-44
2023/08/05 03:32:17;;;;;;;8.50;4.70;;;13.80;99.90;;;;;;4985959;28;20133;-44
2023/08/05 03:34:42;;;;;;;7.57;4.90;;;14.00;99.90;;;;;;4985831;28;20054;-44
2023/08/05 03:37:08;;;;;;;9.40;4.90;;;13.80;99.90;;;;;;4985392;28;20085;-44
2023/08/05 03:39:34;;;;;;;8.50;4.97;;;13.80;99.90;;;;;;4984508;28;20038;-44
2023/08/05 03:41:59;;;;;;;8.15;4.90;;;13.90;99.90;;;;;;4985462;28;20050;-44
2023/08/05 03:44:25;;;;;;;8.45;5.00;;;13.80;99.90;;;;;;4986051;28;20397;-45
2023/08/05 03:46:51;;;;;;;6.88;4.32;;;13.80;99.90;;;;;;4988700;28;20053;-44
2023/08/05 03:49:17;;;;;;;7.65;4.45;;;13.80;99.90;;;;;;4988928;28;20050;-44
2023/08/05 03:51:42;;;;;;;7.05;4.70;;;13.80;99.90;;;;;;4988307;28;20043;-44
2023/08/05 03:54:08;;;;;;;7.45;4.30;;;13.80;99.90;;;;;;4988038;28;20377;-45
2023/08/05 03:56:33;;;;;;;8.68;4.70;;;13.80;99.90;;;;;;4988802;28;20058;-44
2023/08/05 03:58:59;;;;;;;10.82;5.03;;;13.90;99.90;;;;;;4988296;28;20054;-44
2023/08/05 04:01:26;;;;;;;9.43;5.35;;;13.90;99.90;;;;;;4988529;28;20054;-45
2023/08/05 04:03:52;;;;;;;9.18;5.28;;;13.80;99.90;;;;;;4977695;28;20090;-44
2023/08/05 04:06:21;;;;;;;9.00;4.72;;;14.00;99.90;;;;;;4968084;28;20081;-45
2023/08/05 04:08:54;;;;;;;9.73;4.97;;;13.80;99.90;;;;;;4967447;28;20047;-45
2023/08/05 04:11:20;;;;;;;9.70;5.00;;;13.90;99.90;;;;;;4968493;28;20121;-44
2023/08/05 04:13:47;;;;;;;7.40;4.90;;;13.80;99.90;;;;;;4968297;28;20267;-46
2023/08/05 04:16:14;;;;;;;7.85;4.70;;;13.80;99.90;;;;;;4968646;28;20382;-44
2023/08/05 04:18:42;;;;;;;11.10;4.82;;;13.80;99.90;;;;;;4968683;28;20050;-44
2023/08/05 04:21:10;;;;;;;10.40;5.50;;;13.80;99.90;;;;;;4968958;28;20043;-44
2023/08/05 04:23:35;;;;;;;11.43;4.85;;;13.80;99.90;;;;;;4967507;28;20042;-44
2023/08/05 04:26:04;;;;;;;8.90;5.03;;;13.80;99.90;;;;;;4968119;28;20116;-43
2023/08/05 04:28:29;;;;;;;11.73;5.53;;;13.80;99.90;;;;;;4968616;28;20097;-43
2023/08/05 04:30:57;;;;;;;8.18;5.13;;;13.80;99.90;;;;;;4969252;28;20108;-44
2023/08/05 04:33:25;;;;;;;8.48;4.90;;;13.80;99.90;;;;;;4968408;28;20409;-44
2023/08/05 04:35:51;;;;;;;9.15;5.45;;;13.90;99.90;;;;;;4967488;28;20097;-45
2023/08/05 04:38:17;;;;;;;7.97;5.05;;;14.00;99.90;;;;;;4968022;28;20043;-44
2023/08/05 04:40:43;;;;;;;9.75;5.30;;;13.90;99.90;;;;;;4967932;28;20125;-43
2023/08/05 04:43:09;;;;;;;8.98;5.20;;;14.00;99.90;;;;;;4968337;28;20059;-44
2023/08/05 04:45:35;;;;;;;10.15;5.40;;;14.10;99.90;;;;;;4968219;28;20042;-44
2023/08/05 04:48:01;;;;;;;10.07;5.50;;;13.90;99.90;;;;;;4968007;28;20509;-45
2023/08/05 04:50:26;;;;;;;12.23;5.70;;;13.90;99.90;;;;;;4968521;28;20055;-44
2023/08/05 04:52:52;;;;;;;7.63;5.10;;;13.90;99.90;;;;;;4968079;28;20043;-44
2023/08/05 04:55:17;;;;;;;9.02;4.85;;;13.90;99.90;;;;;;4966630;28;20039;-45
2023/08/05 04:57:45;;;;;;;10.40;5.03;;;13.90;99.90;;;;;;4967815;28;20133;-45
2023/08/05 05:00:11;;;;;;;8.95;5.35;;;14.10;99.90;;;;;;4967963;28;20058;-44
2023/08/05 05:02:38;;;;;;;8.98;4.68;;;13.90;99.90;;;;;;4967948;28;20079;-43
2023/08/05 05:05:04;;;;;;;7.90;4.70;;;14.20;99.90;;;;;;4967560;28;20051;-44
2023/08/05 05:07:30;;;;;;;11.38;5.03;;;14.30;99.90;;;;;;4967417;28;20047;-44
2023/08/05 05:09:56;;;;;;;9.10;5.22;;;14.30;99.90;;;;;;4967507;28;20047;-46
2023/08/05 05:12:21;;;;;;;7.95;4.75;;;14.20;99.90;;;;;;4967150;28;20422;-44
2023/08/05 05:14:47;;;;;;;7.32;4.50;;;14.20;99.90;;;;;;4967159;28;20043;-46
2023/08/05 05:17:16;;;;;;;6.70;4.28;;;14.30;99.90;;;;;;4967339;28;20477;-44
2023/08/05 05:19:45;;;;;;;9.82;4.10;;;14.80;99.90;;;;;;4965749;28;20054;-44
2023/08/05 05:22:17;;;;;;;8.65;3.90;;;15.50;99.90;;;;;;4967415;28;20043;-45
2023/08/05 05:24:43;;;;;;;6.70;3.78;;;15.80;99.90;;;;;;4966653;28;20589;-44
2023/08/05 05:27:09;;;;;;;7.18;3.75;;;16.20;99.90;;;;;;4967506;28;20507;-44
2023/08/05 05:29:35;;;;;;;7.43;3.72;;;16.40;99.90;;;;;;4967390;28;20054;-46
2023/08/05 05:32:01;;;;;;;5.88;3.10;;;16.70;99.90;;;;;;4967381;28;20047;-44
2023/08/05 05:34:26;;;;;;;7.10;3.45;;;16.90;99.90;;;;;;4967506;28;20043;-44
2023/08/05 05:36:52;;;;;;;5.43;3.60;;;17.20;99.90;;;;;;4965810;28;20133;-44
2023/08/05 05:39:17;;;;;;;6.75;3.90;;;17.50;99.90;;;;;;4965792;28;20185;-44
2023/08/05 05:41:43;;;;;;;6.72;3.20;;;17.80;99.90;;;;;;4966279;28;20046;-44
2023/08/05 05:44:09;;;;;;;7.15;3.30;;;18.00;99.90;;;;;;4965898;28;20062;-44
2023/08/05 05:46:34;;;;;;;7.53;3.42;;;18.40;99.90;;;;;;4966717;28;20049;-44
2023/08/05 05:49:01;;;;;;;6.00;3.28;;;18.60;99.90;;;;;;4966649;28;20605;-45
2023/08/05 05:51:26;;;;;;;4.80;3.08;;;18.60;99.90;;;;;;4967212;28;20790;-44
2023/08/05 05:53:52;;;;;;;4.78;2.92;;;18.60;99.90;;;;;;4965488;28;20043;-44
2023/08/05 05:56:18;;;;;;;8.40;2.78;;;18.80;99.90;;;;;;4967010;28;20053;-44
2023/08/05 05:58:43;;;;;;;8.73;3.25;;;18.90;99.90;;;;;;4966941;28;20061;-46
2023/08/05 06:01:09;;;;;;;6.07;2.47;;;19.20;99.90;;;;;;4966150;28;20449;-45
2023/08/05 06:03:37;;;;;;;7.22;3.05;;;19.30;99.90;;;;;;4966418;28;20058;-44
2023/08/05 06:06:03;;;;;;;7.05;3.20;;;19.20;99.90;;;;;;4966170;28;20059;-46
2023/08/05 06:08:28;;;;;;;9.77;2.80;;;19.10;99.90;;;;;;4965979;28;20125;-44
2023/08/05 06:10:54;;;;;;;6.38;2.80;;;19.30;99.90;;;;;;4966119;28;20113;-45
2023/08/05 06:13:20;;;;;;;5.47;2.90;;;19.60;99.90;;;;;;4966243;28;20039;-45
2023/08/05 06:15:46;;;;;;;5.90;3.00;;;19.70;99.90;;;;;;4966236;28;20049;-44
2023/08/05 06:18:12;;;;;;;6.53;2.90;;;19.40;99.90;;;;;;4965650;28;20353;-45
2023/08/05 06:20:37;;;;;;;6.70;2.90;;;19.00;99.90;;;;;;4969153;28;20054;-44
2023/08/05 06:23:03;;;;;;;5.20;2.30;;;18.80;99.90;;;;;;4974514;28;20042;-45
2023/08/05 06:25:29;;;;;;;5.88;3.00;;;18.40;99.90;;;;;;4965279;28;20058;-48
2023/08/05 06:27:54;;;;;;;6.03;2.72;;;17.80;99.90;;;;;;4967197;28;20870;-46
2023/08/05 06:30:20;;;;;;;8.77;2.92;;;17.20;99.90;;;;;;4966407;28;20054;-45
2023/08/05 06:32:46;;;;;;;4.60;3.08;;;16.90;99.90;;;;;;4972332;28;20050;-45
2023/08/05 06:35:11;;;;;;;5.38;2.60;;;16.70;99.90;;;;;;4976121;28;20485;-44
2023/08/05 06:37:37;;;;;;;6.63;2.90;;;16.50;99.90;;;;;;4985559;28;20042;-44
2023/08/05 06:40:03;;;;;;;5.35;3.10;;;16.30;99.90;;;;;;4972884;28;20485;-45
2023/08/05 06:42:28;;;;;;;6.00;2.80;;;16.40;99.90;;;;;;4966137;28;20054;-44
2023/08/05 06:44:54;;;;;;;7.25;3.00;;;16.70;99.90;;;;;;4965674;28;20046;-44
2023/08/05 06:47:20;;;;;;;6.15;3.20;;;17.00;99.90;;;;;;4965782;28;20761;-44
2023/08/05 06:49:45;;;;;;;5.07;2.70;;;17.20;99.90;;;;;;4966957;28;20066;-46
2023/08/05 06:52:11;;;;;;;5.28;2.80;;;17.50;99.90;;;;;;4965135;28;20078;-44
2023/08/05 06:54:37;;;;;;;7.53;2.75;;;17.90;99.90;;;;;;4965166;28;20500;-45
2023/08/05 06:57:04;;;;;;;4.80;2.67;;;18.30;99.90;;;;;;4966299;28;20181;-45
2023/08/05 06:59:29;;;;;;;5.53;2.95;;;18.50;99.90;;;;;;4966643;28;20126;-45
2023/08/05 07:01:55;;;;;;;5.55;2.78;;;18.60;99.90;;;;;;4966374;28;20047;-45
2023/08/05 07:04:20;;;;;;;5.22;2.60;;;18.40;99.90;;;;;;4973268;28;20054;-44
2023/08/05 07:06:46;;;;;;;4.80;2.45;;;18.00;99.90;;;;;;4973106;28;20121;-44
2023/08/05 07:09:12;;;;;;;8.15;2.85;;;17.90;99.90;;;;;;4968158;28;20131;-44
2023/08/05 07:11:37;;;;;;;6.55;2.60;;;18.10;99.90;;;;;;4971604;28;20121;-45
2023/08/05 07:14:03;;;;;;;4.18;2.38;;;18.30;99.90;;;;;;4974383;28;20661;-44
2023/08/05 07:16:29;;;;;;;5.95;2.17;;;18.80;99.90;;;;;;4972414;28;20119;-44
2023/08/05 07:18:54;;;;;;;5.20;2.42;;;19.30;99.90;;;;;;4975924;28;20080;-44
2023/08/05 07:21:20;;;;;;;4.85;2.42;;;19.40;99.90;;;;;;4973968;28;20073;-44
2023/08/05 07:23:46;;;;;;;5.13;2.30;;;19.50;99.90;;;;;;4970850;28;20423;-44
2023/08/05 07:26:12;;;;;;;3.97;2.20;;;19.50;99.90;;;;;;4973628;28;20050;-44
2023/08/05 07:28:37;;;;;;;4.53;2.40;;;19.20;99.90;;;;;;4974644;28;20039;-44
2023/08/05 07:31:08;;;;;;;4.57;2.08;;;18.80;99.90;;;;;;4970007;28;20039;-44
2023/08/05 07:33:34;;;;;;;5.70;2.40;;;18.60;99.90;;;;;;4967615;28;20051;-45
2023/08/05 07:36:13;;;;;;;4.55;2.03;;;18.30;99.90;;;;;;4969776;28;20053;-44
2023/08/05 07:38:40;;;;;;;4.68;2.40;;;18.20;99.90;;;;;;4980910;28;20401;-45
2023/08/05 07:41:06;;;;;;;6.65;2.17;;;18.00;99.90;;;;;;4969745;28;20484;-45
2023/08/05 07:43:35;;;;;;;6.45;2.17;;;17.90;99.90;;;;;;4984164;28;20038;-44
2023/08/05 07:46:02;;;;;;;4.35;2.15;;;17.90;99.90;;;;;;4967476;28;20061;-44
2023/08/05 07:48:32;;;;;;;4.88;2.10;;;17.80;99.90;;;;;;4966660;28;20054;-44
2023/08/05 07:50:59;;;;;;;6.00;2.38;;;17.80;99.90;;;;;;4966930;28;20156;-44
2023/08/05 07:53:24;;;;;;;6.10;2.50;;;17.70;99.90;;;;;;4966182;28;20069;-44
2023/08/05 07:55:52;;;;;;;5.15;2.20;;;17.70;99.90;;;;;;4966214;28;20438;-44
2023/08/05 07:58:19;;;;;;;3.25;2.05;;;17.80;99.90;;;;;;4966849;28;20125;-44
2023/08/05 08:00:44;;;;;;;4.30;2.13;;;17.90;99.90;;;;;;4967000;28;20047;-46
2023/08/05 08:03:10;;;;;;;5.10;2.00;;;18.10;99.90;;;;;;4966019;28;20496;-45
2023/08/05 08:05:36;;;;;;;3.58;1.80;;;18.30;99.90;;;;;;4966816;28;20061;-45
2023/08/05 08:08:02;;;;;;;4.07;1.90;;;18.40;99.90;;;;;;4965158;28;20126;-44
2023/08/05 08:10:27;;;;;;;4.22;1.85;;;18.40;99.90;;;;;;4966457;28;20116;-44
2023/08/05 08:12:53;;;;;;;3.15;1.70;;;18.30;99.90;;;;;;4965815;28;20061;-44
2023/08/05 08:15:19;;;;;;;3.72;2.00;;;18.50;99.90;;;;;;4966337;28;20135;-44
2023/08/05 08:17:45;;;;;;;3.38;1.83;;;18.90;99.90;;;;;;4966393;28;20058;-44
2023/08/05 08:20:11;;;;;;;3.88;1.90;;;19.10;99.90;;;;;;4965698;28;20054;-44
2023/08/05 08:22:36;;;;;;;3.88;1.90;;;19.30;99.90;;;;;;4965762;28;20553;-45
2023/08/05 08:25:02;;;;;;;4.25;2.00;;;19.60;99.90;;;;;;4966343;28;20062;-45
2023/08/05 08:27:28;;;;;;;3.80;1.65;;;19.90;99.50;;;;;;4965993;28;20281;-44
2023/08/05 08:29:53;;;;;;;3.83;1.50;;;19.90;98.30;;;;;;4964051;28;20097;-44
2023/08/05 08:32:19;;;;;;;2.97;1.52;;;19.70;98.60;;;;;;4964590;28;20050;-45
2023/08/05 08:34:45;;;;;;;2.90;1.83;;;19.50;99.00;;;;;;4966391;28;20097;-45
2023/08/05 08:37:11;;;;;;;4.65;1.65;;;19.30;99.20;;;;;;4968006;28;20042;-44
2023/08/05 08:39:36;;;;;;;3.10;1.55;;;19.10;99.60;;;;;;4974668;28;20038;-45
2023/08/05 08:42:02;;;;;;;2.53;1.60;;;18.90;99.90;;;;;;4974323;28;20035;-44
2023/08/05 08:44:29;;;;;;;2.25;1.40;;;19.10;99.50;;;;;;4975474;28;20109;-45
2023/08/05 08:46:56;;;;;;;3.17;1.58;;;19.20;99.60;;;;;;4975048;28;20462;-44
2023/08/05 08:49:23;;;;;;;4.20;1.73;;;19.20;99.00;;;;;;4976248;28;20046;-44
2023/08/05 08:51:49;;;;;;;4.50;1.50;;;19.30;99.10;;;;;;4975569;28;20465;-45
2023/08/05 08:54:17;;;;;;;3.55;1.73;;;19.40;98.90;;;;;;4969708;28;20047;-44
2023/08/05 08:56:43;;;;;;;2.50;1.50;;;19.50;98.60;;;;;;4970842;28;20061;-46
2023/08/05 08:59:09;;;;;;;2.47;1.55;;;19.50;98.40;;;;;;4968132;28;20035;-45
2023/08/05 09:01:41;;;;;;;2.65;1.48;;;19.40;98.60;;;;;;4971716;28;20097;-43
2023/08/05 09:04:08;;;;;;;4.35;1.70;;;19.40;98.70;;;;;;4974325;28;20542;-44
2023/08/05 09:06:36;;;;;;;2.47;1.35;;;19.40;98.60;;;;;;4974450;28;20070;-44
2023/08/05 09:09:02;;;;;;;3.42;1.67;;;19.50;98.60;;;;;;4968621;28;20054;-45
2023/08/05 09:11:27;;;;;;;4.38;1.70;;;19.50;98.90;;;;;;4972209;28;20046;-44
2023/08/05 09:13:53;;;;;;;3.83;2.00;;;19.60;98.80;;;;;;4960317;28;20122;-44
2023/08/05 09:16:19;;;;;;;2.58;1.50;;;19.80;98.40;;;;;;4945362;28;20055;-46
2023/08/05 09:18:51;;;;;;;3.15;1.50;;;19.90;98.00;;;;;;4945798;28;20135;-45
2023/08/05 09:21:28;;;;;;;3.35;1.60;;;20.10;97.80;;;;;;4945394;28;20118;-46
2023/08/05 09:23:55;;;;;;;2.63;1.42;;;20.20;97.20;;;;;;4944326;28;20051;-45
2023/08/05 09:26:32;;;;;;;2.72;1.70;;;20.20;96.80;;;;;;4944217;28;20051;-43
2023/08/05 09:28:59;;;;;;;2.47;1.40;;;20.00;97.40;;;;;;4945000;28;20047;-45
2023/08/05 09:31:25;;;;;;;3.42;1.65;;;20.00;97.30;;;;;;4945252;28;20054;-45
2023/08/05 09:33:51;;;;;;;4.65;1.80;;;20.00;97.30;;;;;;4945154;28;20093;-46
2023/08/05 09:36:22;;;;;;;3.22;1.63;;;20.10;97.90;;;;;;4945076;28;20506;-45
2023/08/05 09:39:00;;;;;;;4.97;1.77;;;20.20;97.70;;;;;;4943894;28;20043;-45
2023/08/05 09:41:31;;;;;;;2.50;1.50;;;20.20;97.80;;;;;;4959880;28;20405;-45
2023/08/05 09:43:59;;;;;;;5.75;1.73;;;20.30;97.90;;;;;;4982995;28;20444;-45
2023/08/05 09:46:36;;;;;;;3.03;1.52;;;20.40;97.20;;;;;;4983623;28;20050;-46
2023/08/05 09:49:01;;;;;;;2.63;1.42;;;20.60;97.00;;;;;;4981926;28;20089;-45
2023/08/05 09:51:28;;;;;;;2.63;1.30;;;20.90;97.00;;;;;;4963710;28;20082;-45
2023/08/05 09:53:54;;;;;;;4.28;1.90;;;21.10;96.60;;;;;;4963238;28;20039;-45
2023/08/05 09:56:20;;;;;;;3.45;1.60;;;21.30;95.70;;;;;;4964005;28;20138;-45
2023/08/05 09:58:50;;;;;;;3.67;1.40;;;21.40;95.50;;;;;;4963137;28;20117;-44
2023/08/05 10:01:18;;;;;;;2.88;1.63;;;21.20;95.10;;;;;;4963629;28;20050;-46
2023/08/05 10:03:47;;;;;;;2.53;1.60;;;20.90;95.60;;;;;;4963746;28;20129;-47
2023/08/05 10:06:14;;;;;;;3.75;1.75;;;20.70;95.30;;;;;;4963254;28;20425;-45
2023/08/05 10:08:40;;;;;;;3.33;1.75;;;20.50;95.70;;;;;;4963376;28;20320;-45
2023/08/05 10:11:07;;;;;;;4.68;1.70;;;20.60;96.10;;;;;;4963497;28;20075;-45
2023/08/05 10:13:38;;;;;;;2.80;1.50;;;20.80;96.50;;;;;;4962675;28;20050;-45
2023/08/05 10:16:06;;;;;;;3.45;1.77;;;21.10;95.50;;;;;;4962153;28;20053;-44
2023/08/05 10:18:33;;;;;;;4.50;1.80;;;21.20;94.90;;;;;;4963646;28;20505;-45
2023/08/05 10:21:04;;;;;;;3.40;1.55;;;21.30;94.60;;;;;;4963064;28;20046;-46
2023/08/05 10:23:32;;;;;;;2.88;1.48;;;21.40;94.70;;;;;;4962799;28;20078;-45
2023/08/05 10:26:00;;;;;;;4.15;1.63;;;21.70;93.90;;;;;;4962787;28;20050;-52
2023/08/05 10:28:26;;;;;;;3.03;1.50;;;21.80;94.30;;;;;;4962514;28;20045;-52
2023/08/05 10:30:53;;;;;;;4.35;1.88;;;21.70;94.60;;;;;;4975245;28;20136;-53
2023/08/05 10:33:19;;;;;;;3.10;1.88;;;21.70;94.70;;;;;;4963340;28;20070;-45
2023/08/05 10:35:46;;;;;;;3.00;1.50;;;21.80;95.00;;;;;;4963272;28;20047;-45
2023/08/05 10:38:18;;;;;;;3.20;1.50;;;21.90;93.40;;;;;;4962276;28;20556;-46
2023/08/05 10:40:43;;;;;;;1.90;1.40;;;21.80;93.80;;;;;;4963271;28;20153;-46
2023/08/05 10:43:10;;;;;;;3.33;1.60;;;21.60;93.90;;;;;;4963690;28;20149;-46
2023/08/05 10:45:40;;;;;;;4.60;1.60;;;21.30;94.20;;;;;;4962678;28;20145;-46
2023/08/05 10:48:10;;;;;;;3.42;1.63;;;21.30;94.60;;;;;;4961997;28;20041;-45
2023/08/05 10:50:39;;;;;;;3.58;1.60;;;21.30;94.40;;;;;;4963140;28;20041;-45
2023/08/05 10:53:12;;;;;;;2.35;1.55;;;21.30;94.50;;;;;;4961053;28;20053;-45
2023/08/05 10:55:49;;;;;;;3.30;1.60;;;21.30;94.70;;;;;;4967178;28;20384;-45
2023/08/05 10:58:35;;;;;;;3.67;1.65;;;21.60;94.50;;;;;;4968936;28;20046;-46
2023/08/05 11:01:05;;;;;;;2.67;1.55;;;21.60;95.10;;;;;;4972061;28;20054;-45
2023/08/05 11:03:32;;;;;;;3.30;1.70;;;21.60;95.00;;;;;;4985777;28;20154;-46
2023/08/05 11:06:02;;;;;;;2.72;1.70;;;21.40;95.00;;;;;;4986665;28;20520;-45
2023/08/05 11:08:28;;;;;;;3.25;1.73;;;21.30;95.20;;;;;;4985838;28;20402;-45
2023/08/05 11:10:54;;;;;;;3.08;1.88;;;21.30;95.10;;;;;;4978228;28;20046;-44
2023/08/05 11:13:19;;;;;;;3.00;1.55;;;21.20;95.00;;;;;;4975393;28;20069;-44
2023/08/05 11:16:04;;;;;;;2.65;1.55;;;21.10;95.70;;;;;;4949220;28;20043;-46
2023/08/05 11:18:31;;;;;;;3.47;1.70;;;21.30;95.20;;;;;;4966506;28;20078;-44
2023/08/05 11:20:58;;;;;;;3.38;1.92;;;21.40;94.60;;;;;;4966876;28;20038;-44
2023/08/05 11:23:24;;;;;;;5.03;2.15;;;21.30;94.70;;;;;;4966113;28;20158;-46
2023/08/05 11:25:52;;;;;;;4.15;2.22;;;21.20;95.40;;;;;;4966226;28;20109;-45
2023/08/05 11:28:18;;;;;;;5.28;2.30;;;21.30;95.50;;;;;;4966590;28;20043;-45
2023/08/05 11:30:44;;;;;;;4.53;2.35;;;21.40;94.90;;;;;;4967269;28;20089;-45
2023/08/05 11:33:10;;;;;;;3.53;2.33;;;21.60;95.00;;;;;;4966313;28;20520;-45
2023/08/05 11:35:47;;;;;;;2.78;2.20;;;21.70;95.00;;;;;;4966792;28;20050;-46
2023/08/05 11:38:20;;;;;;;2.95;2.22;;;21.90;94.90;;;;;;4966240;28;20050;-45
2023/08/05 11:40:54;;;;;;;3.90;2.25;;;22.00;94.80;;;;;;4965612;28;20046;-45
2023/08/05 11:43:21;;;;;;;3.70;2.08;;;22.00;94.80;;;;;;4966641;28;20516;-45
2023/08/05 11:45:47;;;;;;;3.60;2.03;;;21.90;95.20;;;;;;4966585;28;20054;-46
2023/08/05 11:48:21;;;;;;;5.28;2.15;;;22.00;95.30;;;;;;4966561;28;20477;-45
2023/08/05 11:50:48;;;;;;;3.88;2.00;;;22.00;95.00;;;;;;4964481;28;20050;-46
2023/08/05 11:53:14;;;;;;;3.72;2.13;;;21.90;94.60;;;;;;4965680;28;20069;-44
2023/08/05 11:55:42;;;;;;;7.00;2.38;;;21.90;94.70;;;;;;4965894;28;20053;-46
2023/08/05 11:58:10;;;;;;;3.88;2.30;;;21.80;94.70;;;;;;4968943;28;20038;-45
2023/08/05 12:00:35;;;;;;;3.80;2.00;;;21.90;94.60;;;;;;4969865;28;20513;-44
2023/08/05 12:03:05;;;;;;;2.92;1.80;;;21.90;94.20;;;;;;4967623;28;20073;-46
2023/08/05 12:05:31;;;;;;;4.22;1.98;;;21.70;95.00;;;;;;4966961;28;20094;-44
2023/08/05 12:07:56;;;;;;;3.17;2.00;;;21.60;95.30;;;;;;4955529;28;20450;-45
2023/08/05 12:10:22;;;;;;;3.72;1.92;;;21.60;95.70;;;;;;4949411;28;20043;-45
2023/08/05 12:12:49;;;;;;;3.97;1.90;;;21.70;95.20;;;;;;4945355;29;20047;-45
2023/08/05 12:15:17;;;;;;;3.10;1.95;;;21.70;94.50;;;;;;4946859;28;20054;-45
2023/08/05 12:17:54;;;;;;;2.20;1.63;;;21.60;94.80;;;;;;4945863;28;20063;-44
2023/08/05 12:20:21;;;;;;;3.80;1.80;;;21.60;95.00;;;;;;4946668;28;20047;-45
2023/08/05 12:22:48;;;;;;;3.85;1.92;;;21.60;95.20;;;;;;4945508;28;20050;-49
2023/08/05 12:25:13;;;;;;;3.25;2.25;;;21.70;94.70;;;;;;4960152;28;20134;-45
2023/08/05 12:27:40;;;;;;;4.25;2.40;;;21.70;94.80;;;;;;4973999;28;20138;-45
2023/08/05 12:30:07;;;;;;;5.70;3.35;;;21.60;95.30;;;;;;4965299;28;20125;-45
2023/08/05 12:32:34;;;;;;;5.18;3.38;;;21.60;95.40;;;;;;4963539;28;20051;-45
2023/08/05 12:35:01;;;;;;;5.20;3.50;;;21.70;95.70;;;;;;4965342;28;20199;-45
2023/08/05 12:37:27;;;;;;;5.05;3.58;;;21.70;95.80;;;;;;4964731;28;20043;-45
2023/08/05 12:39:53;;;;;;;4.90;3.47;;;21.70;95.70;;;;;;4965252;28;20045;-45
2023/08/05 12:42:18;;;;;;;6.50;4.90;;;21.80;95.90;;;;;;4964607;28;20466;-47
2023/08/05 12:44:44;;;;;;;9.15;4.82;;;21.90;95.40;;;;;;4965966;28;20093;-45